Time;durP1;ratioP1;P1;durP2;ratioP2;P2;SDS_P1;SDS_P2;PMS_P1;PMS_P2;Temp;Humidity;BMP_temperature;BMP_pressure;BME280_temperature;BME280_humidity;BME280_pressure;Samples;Min_cycle;Max_cycle;Signal;HPM_P1;HPM_P2
2022/12/17 13:06:47;;;;;;;61.80;41.40;;;;;;;-1.64;69.10;101270.55;108204;1289;21955;-84
2022/12/17 13:09:17;;;;;;;51.90;38.80;;;;;;;-1.66;69.05;101271.17;108138;1286;23858;-84
2022/12/17 13:11:59;;;;;;;58.30;40.60;;;;;;;-1.65;69.12;101273.75;108234;1289;21989;-84
2022/12/17 13:14:45;;;;;;;56.80;39.90;;;;;;;-1.63;69.32;101278.26;108150;1289;21964;-85
2022/12/17 13:17:15;;;;;;;54.30;38.90;;;;;;;-1.59;69.28;101277.84;108308;1283;21966;-85
2022/12/17 13:20:00;;;;;;;54.80;41.30;;;;;;;-1.55;69.20;101282.74;108432;1278;23104;-84
2022/12/17 13:22:32;;;;;;;53.80;40.90;;;;;;;-1.51;69.16;101282.83;108503;1272;22084;-84
2022/12/17 13:25:22;;;;;;;57.10;42.20;;;;;;;-1.49;69.10;101286.30;108310;1283;21963;-84
2022/12/17 13:27:53;;;;;;;52.00;38.40;;;;;;;-1.50;69.08;101285.95;108223;1288;21947;-83
2022/12/17 13:30:37;;;;;;;55.10;40.10;;;;;;;-1.49;69.10;101282.89;107922;1289;21954;-84
2022/12/17 13:33:25;;;;;;;57.50;40.30;;;;;;;-1.47;68.97;101279.70;108202;1289;23890;-83
2022/12/17 13:36:51;;;;;;;55.20;41.30;;;;;;;-1.48;68.98;101286.00;108120;1289;22233;-82
2022/12/17 13:39:27;;;;;;;57.70;42.60;;;;;;;-1.51;68.81;101292.23;107366;1294;21993;-84
2022/12/17 13:41:59;;;;;;;61.30;45.60;;;;;;;-1.52;68.85;101296.14;107621;1290;21969;-86
2022/12/17 13:44:47;;;;;;;61.60;45.70;;;;;;;-1.49;68.94;101305.08;107572;1287;23814;-84
2022/12/17 13:47:37;;;;;;;53.40;40.70;;;;;;;-1.48;69.03;101310.92;107767;1282;23150;-84
2022/12/17 13:50:29;;;;;;;55.00;40.60;;;;;;;-1.47;68.94;101313.66;107595;1289;23077;-82
2022/12/17 13:53:14;;;;;;;52.10;39.10;;;;;;;-1.47;68.90;101316.75;107637;1295;22268;-83
2022/12/17 13:55:51;;;;;;;52.80;38.40;;;;;;;-1.48;68.81;101320.13;107538;1287;23577;-82
2022/12/17 13:58:32;;;;;;;51.30;38.90;;;;;;;-1.49;68.81;101323.35;107747;1289;22368;-82
2022/12/17 14:01:07;;;;;;;57.40;39.80;;;;;;;-1.53;68.69;101327.34;107435;1296;22084;-79
2022/12/17 14:03:42;;;;;;;56.70;42.30;;;;;;;-1.56;68.70;101331.02;107264;1289;21999;-83
2022/12/17 14:06:36;;;;;;;61.30;44.00;;;;;;;-1.63;68.48;101334.59;107187;1290;23647;-79
2022/12/17 14:09:17;;;;;;;53.50;41.40;;;;;;;-1.67;68.58;101335.15;107079;1292;21983;-84
2022/12/17 14:14:39;;;;;;;64.70;47.60;;;;;;;-1.76;68.53;101340.71;106546;1295;22002;-81
2022/12/17 14:17:22;;;;;;;73.50;48.30;;;;;;;-1.80;68.48;101345.70;107113;1297;21981;-80
2022/12/17 14:20:06;;;;;;;77.80;53.30;;;;;;;-1.83;68.50;101348.88;107327;1295;21947;-81
2022/12/17 14:22:41;;;;;;;85.90;56.10;;;;;;;-1.84;68.63;101357.70;107103;1298;23702;-83
2022/12/17 14:25:23;;;;;;;101.40;62.60;;;;;;;-1.84;68.74;101360.60;107316;1292;22355;-84
2022/12/17 14:27:56;;;;;;;104.50;67.80;;;;;;;-1.85;68.80;101362.63;107252;1298;23071;-84
2022/12/17 14:30:39;;;;;;;104.50;68.20;;;;;;;-1.85;68.79;101364.66;107507;1293;21964;-82
2022/12/17 14:33:36;;;;;;;106.90;70.40;;;;;;;-1.91;68.66;101364.34;107725;1295;21953;-83
2022/12/17 14:36:15;;;;;;;107.00;71.80;;;;;;;-1.94;68.54;101369.36;107492;1295;21939;-85
2022/12/17 14:39:02;;;;;;;106.00;72.80;;;;;;;-1.98;68.59;101372.34;107696;1292;21965;-85
2022/12/17 14:44:30;;;;;;;112.70;75.70;;;;;;;-2.07;68.62;101384.69;108449;1290;21988;-85
2022/12/17 14:47:39;;;;;;;113.70;77.90;;;;;;;-2.09;68.68;101387.36;108487;1286;22450;-83
2022/12/17 14:50:24;;;;;;;109.20;74.20;;;;;;;-2.10;68.73;101392.42;108417;1287;21960;-84
2022/12/17 14:53:22;;;;;;;125.50;84.30;;;;;;;-2.13;68.76;101395.91;108025;1289;24460;-84
2022/12/17 14:55:57;;;;;;;121.90;80.70;;;;;;;-2.18;68.62;101398.48;108732;1277;21941;-85
2022/12/17 14:58:30;;;;;;;122.00;80.40;;;;;;;-2.24;68.55;101405.64;108739;1277;22112;-82
2022/12/17 15:01:07;;;;;;;134.40;89.80;;;;;;;-2.26;68.68;101409.15;108525;1278;22731;-83
2022/12/17 15:03:45;;;;;;;136.00;87.70;;;;;;;-2.29;68.65;101418.94;108589;1284;21914;-82
2022/12/17 15:06:19;;;;;;;145.70;88.30;;;;;;;-2.34;68.69;101425.95;108418;1286;21960;-83
2022/12/17 15:08:51;;;;;;;146.80;89.60;;;;;;;-2.36;68.81;101427.27;108122;1289;21966;-83
2022/12/17 15:11:22;;;;;;;147.40;88.20;;;;;;;-2.39;68.86;101427.17;108257;1278;21957;-83
2022/12/17 15:13:52;;;;;;;147.40;88.10;;;;;;;-2.42;68.66;101429.79;108319;1289;22281;-83
2022/12/17 15:16:25;;;;;;;141.20;82.40;;;;;;;-2.48;68.67;101432.84;107840;1289;22831;-81
2022/12/17 15:18:55;;;;;;;162.90;91.40;;;;;;;-2.50;68.81;101436.16;107017;1300;21982;-83
2022/12/17 15:21:25;;;;;;;151.50;86.90;;;;;;;-2.55;68.66;101437.02;106677;1304;22005;-83
2022/12/17 15:23:55;;;;;;;143.20;80.40;;;;;;;-2.58;68.97;101436.79;106595;1306;21987;-83
2022/12/17 15:26:25;;;;;;;135.30;80.70;;;;;;;-2.58;68.99;101438.14;106484;1306;22830;-83
2022/12/17 15:28:55;;;;;;;136.40;79.70;;;;;;;-2.60;69.12;101443.70;106436;1303;21983;-82
2022/12/17 15:31:25;;;;;;;136.40;80.60;;;;;;;-2.61;69.14;101451.68;106704;1303;21972;-83
2022/12/17 15:34:03;;;;;;;144.70;84.90;;;;;;;-2.65;68.94;101448.98;106657;1295;22004;-80
2022/12/17 15:36:33;;;;;;;147.20;91.20;;;;;;;-2.65;69.00;101454.08;107066;1292;22341;-81
2022/12/17 15:39:05;;;;;;;140.40;86.20;;;;;;;-2.69;68.88;101455.48;107807;1289;21953;-83
2022/12/17 15:44:22;;;;;;;151.60;90.80;;;;;;;-2.86;68.75;101463.91;108568;1275;21956;-83
2022/12/17 15:46:56;;;;;;;118.40;75.40;;;;;;;-2.93;68.79;101465.90;108332;1286;22287;-83
2022/12/17 15:49:28;;;;;;;88.50;61.00;;;;;;;-2.97;68.86;101469.50;108471;1286;21956;-82
2022/12/17 15:51:58;;;;;;;80.80;55.30;;;;;;;-3.00;68.95;101471.09;108644;1277;22733;-82
2022/12/17 15:54:28;;;;;;;85.70;56.60;;;;;;;-3.03;69.00;101468.45;108627;1284;21944;-82
2022/12/17 15:57:15;;;;;;;91.60;59.70;;;;;;;-3.08;68.96;101468.08;108659;1284;22995;-83
2022/12/17 16:00:05;;;;;;;98.50;61.70;;;;;;;-3.15;69.03;101469.05;108607;1277;23005;-83
2022/12/17 16:02:45;;;;;;;99.00;63.60;;;;;;;-3.17;69.15;101475.45;108317;1278;22759;-83
2022/12/17 16:05:16;;;;;;;99.40;63.90;;;;;;;-3.16;69.24;101476.33;108227;1277;21905;-82
2022/12/17 16:07:50;;;;;;;96.70;63.20;;;;;;;-3.14;69.25;101473.84;108352;1280;21963;-82
2022/12/17 16:10:20;;;;;;;101.70;67.70;;;;;;;-3.11;69.45;101473.13;108298;1276;21965;-81
2022/12/17 16:12:55;;;;;;;97.30;64.20;;;;;;;-3.10;69.39;101474.34;108161;1286;21958;-83
2022/12/17 16:15:30;;;;;;;90.10;61.70;;;;;;;-3.12;69.30;101473.41;108222;1286;22228;-82
2022/12/17 16:18:00;;;;;;;98.50;65.60;;;;;;;-3.16;69.28;101475.30;108233;1273;21942;-83
2022/12/17 16:20:30;;;;;;;95.50;63.30;;;;;;;-3.20;69.26;101479.42;108463;1280;21979;-83
2022/12/17 16:23:00;;;;;;;93.20;61.40;;;;;;;-3.24;69.24;101484.74;108344;1280;21977;-85
2022/12/17 16:25:32;;;;;;;95.00;62.40;;;;;;;-3.29;69.12;101490.68;108488;1274;21935;-83
2022/12/17 16:28:02;;;;;;;95.80;60.80;;;;;;;-3.34;68.99;101492.18;107778;1291;22094;-82
2022/12/17 16:30:31;;;;;;;87.00;60.70;;;;;;;-3.40;69.01;101496.25;107899;1283;21962;-81
2022/12/17 16:33:01;;;;;;;99.20;63.80;;;;;;;-3.40;69.38;101505.74;107973;1291;24429;-80
2022/12/17 16:35:31;;;;;;;94.20;63.30;;;;;;;-3.34;69.77;101513.80;107966;1283;22423;-82
2022/12/17 16:38:01;;;;;;;103.20;65.60;;;;;;;-3.32;69.58;101517.27;107792;1289;21953;-82
2022/12/17 16:40:31;;;;;;;94.70;63.70;;;;;;;-3.31;69.69;101518.84;107834;1282;22946;-80
2022/12/17 16:43:00;;;;;;;103.40;64.20;;;;;;;-3.29;69.78;101521.30;107960;1292;21974;-82
2022/12/17 16:45:30;;;;;;;86.50;62.60;;;;;;;-3.27;69.88;101528.38;107852;1275;21956;-82
2022/12/17 16:48:12;;;;;;;;;;;;;;;;;;;;;
2022/12/17 16:50:48;;;;;;;95.70;63.50;;;;;;;-3.22;69.96;101528.19;108449;1275;22755;-82
2022/12/17 16:53:20;;;;;;;102.00;67.50;;;;;;;-3.19;70.08;101527.66;108263;1282;23123;-84
2022/12/17 16:55:50;;;;;;;99.10;70.40;;;;;;;-3.14;69.96;101528.84;108474;1285;21953;-83
2022/12/17 16:58:36;;;;;;;115.30;75.20;;;;;;;-3.13;69.89;101529.23;108620;1277;22302;-83
2022/12/17 17:01:32;;;;;;;112.40;72.60;;;;;;;-3.13;69.86;101530.94;108048;1283;21935;-81
2022/12/17 17:04:07;;;;;;;121.90;78.40;;;;;;;-3.14;69.78;101530.90;108180;1289;21974;-84
2022/12/17 17:06:55;;;;;;;107.80;69.40;;;;;;;-3.12;69.90;101530.80;108268;1290;21944;-82
2022/12/17 17:09:25;;;;;;;102.60;71.80;;;;;;;-3.11;69.97;101531.17;107691;1293;23147;-82
2022/12/17 17:11:57;;;;;;;110.80;67.10;;;;;;;-3.09;70.07;101534.95;107869;1293;21985;-82
2022/12/17 17:14:26;;;;;;;105.10;67.30;;;;;;;-3.10;69.95;101538.02;107199;1297;21966;-82
2022/12/17 17:16:56;;;;;;;102.70;65.90;;;;;;;-3.10;70.10;101538.70;107587;1290;22433;-82
2022/12/17 17:19:25;;;;;;;108.00;68.60;;;;;;;-3.09;70.33;101538.20;107451;1292;22403;-82
2022/12/17 17:21:55;;;;;;;105.10;70.10;;;;;;;-3.07;70.24;101542.72;107643;1292;22230;-81
2022/12/17 17:24:27;;;;;;;103.90;66.30;;;;;;;-3.03;70.24;101544.23;107017;1291;21979;-81
2022/12/17 17:27:07;;;;;;;102.00;66.90;;;;;;;-3.01;70.28;101543.83;107074;1295;22742;-81
2022/12/17 17:29:42;;;;;;;100.50;65.40;;;;;;;-2.99;70.37;101550.50;107277;1297;21962;-83
2022/12/17 17:32:12;;;;;;;105.00;67.00;;;;;;;-2.98;70.21;101557.88;107362;1290;21975;-83
2022/12/17 17:34:45;;;;;;;94.10;64.10;;;;;;;-2.98;70.38;101563.83;107417;1295;21985;-82
2022/12/17 17:37:17;;;;;;;105.90;69.10;;;;;;;-2.96;70.39;101574.98;107448;1285;21945;-83
2022/12/17 17:39:47;;;;;;;110.40;68.20;;;;;;;-2.96;70.34;101579.94;107664;1290;22244;-82
2022/12/17 17:42:16;;;;;;;108.40;69.40;;;;;;;-2.93;70.44;101584.14;107808;1290;21970;-82
2022/12/17 17:44:47;;;;;;;105.40;68.50;;;;;;;-2.89;70.63;101590.08;108027;1288;21954;-82
2022/12/17 17:47:21;;;;;;;95.90;62.50;;;;;;;-2.86;70.55;101587.27;108181;1291;23063;-81
2022/12/17 17:49:57;;;;;;;92.50;62.50;;;;;;;-2.85;70.49;101590.71;108096;1283;25024;-82
2022/12/17 17:52:40;;;;;;;73.30;53.60;;;;;;;-2.83;70.49;101591.82;107564;1290;21974;-81
2022/12/17 17:55:17;;;;;;;68.90;50.00;;;;;;;-2.81;70.66;101598.20;107486;1292;21997;-83
2022/12/17 17:57:49;;;;;;;72.50;50.60;;;;;;;-2.80;70.88;101597.38;107392;1294;22721;-83
2022/12/17 18:00:32;;;;;;;67.10;47.60;;;;;;;-2.80;70.78;101596.36;107966;1288;21990;-84
2022/12/17 18:03:09;;;;;;;61.50;46.40;;;;;;;-2.78;70.82;101599.02;108007;1287;22785;-82
2022/12/17 18:05:48;;;;;;;57.60;43.30;;;;;;;-2.76;70.82;101597.52;108099;1283;21941;-82
2022/12/17 18:08:21;;;;;;;54.50;43.60;;;;;;;-2.74;70.84;101600.84;108117;1288;21998;-82
2022/12/17 18:11:37;;;;;;;60.10;43.20;;;;;;;-2.72;70.91;101604.64;108710;1282;21972;-84
2022/12/17 18:14:20;;;;;;;56.10;40.50;;;;;;;-2.70;70.97;101606.77;108849;1275;23594;-84
2022/12/17 18:17:00;;;;;;;61.70;40.70;;;;;;;-2.70;70.89;101606.96;108679;1282;21970;-82
2022/12/17 18:19:32;;;;;;;59.30;40.90;;;;;;;-2.68;70.90;101609.76;108341;1279;21968;-82
2022/12/17 18:22:10;;;;;;;54.10;39.90;;;;;;;-2.68;70.89;101609.04;108423;1277;23174;-81
2022/12/17 18:24:45;;;;;;;59.90;42.60;;;;;;;-2.69;70.87;101617.02;108379;1280;21919;-82
2022/12/17 18:27:15;;;;;;;62.60;44.30;;;;;;;-2.70;70.75;101623.81;108490;1283;23086;-83
2022/12/17 18:29:45;;;;;;;58.70;42.80;;;;;;;-2.69;70.91;101629.98;108476;1283;22544;-81
2022/12/17 18:32:25;;;;;;;58.30;42.50;;;;;;;-2.66;70.96;101632.64;107806;1280;23079;-83
2022/12/17 18:34:55;;;;;;;59.30;42.20;;;;;;;-2.65;70.92;101634.41;108168;1281;21957;-82
2022/12/17 18:37:25;;;;;;;57.30;40.50;;;;;;;-2.63;70.99;101639.23;108020;1284;23614;-80
2022/12/17 18:39:58;;;;;;;54.40;39.50;;;;;;;-2.64;70.86;101643.98;107765;1293;23052;-83
2022/12/17 18:45:30;;;;;;;52.20;38.80;;;;;;;-2.72;70.83;101654.26;106484;1296;22024;-82
2022/12/17 18:48:05;;;;;;;55.00;38.10;;;;;;;-2.73;70.97;101656.08;106691;1295;22011;-81
2022/12/17 18:50:37;;;;;;;51.20;38.40;;;;;;;-2.73;70.99;101658.45;106719;1295;21947;-82
2022/12/17 18:53:07;;;;;;;49.60;38.20;;;;;;;-2.76;70.89;101661.95;106575;1298;21970;-83
2022/12/17 18:55:43;;;;;;;49.40;38.10;;;;;;;-2.78;70.87;101670.56;107079;1295;23768;-82
2022/12/17 18:58:17;;;;;;;54.30;39.80;;;;;;;-2.80;70.96;101673.55;106795;1297;23703;-82
2022/12/17 19:00:55;;;;;;;45.90;36.40;;;;;;;-2.80;70.98;101672.49;107225;1292;21963;-81
2022/12/17 19:03:32;;;;;;;53.30;41.30;;;;;;;-2.81;71.00;101676.58;107843;1289;21804;-81
2022/12/17 19:06:10;;;;;;;54.40;41.40;;;;;;;-2.82;71.07;101679.95;108264;1277;22178;-80
2022/12/17 19:08:47;;;;;;;55.10;41.80;;;;;;;-2.83;71.11;101679.23;108122;1283;23689;-80
2022/12/17 19:11:32;;;;;;;55.80;43.00;;;;;;;-2.81;71.09;101684.92;108275;1282;21943;-80
2022/12/17 19:14:16;;;;;;;58.20;43.70;;;;;;;-2.84;71.07;101693.34;107854;1283;22312;-81
2022/12/17 19:17:05;;;;;;;55.30;42.90;;;;;;;-2.85;71.16;101699.77;107805;1284;22141;-81
2022/12/17 19:19:39;;;;;;;61.80;46.90;;;;;;;-2.82;71.30;101704.14;107429;1286;21977;-80
2022/12/17 19:22:20;;;;;;;59.40;45.80;;;;;;;-2.78;71.35;101710.95;107286;1294;22761;-79
2022/12/17 19:25:07;;;;;;;59.60;44.10;;;;;;;-2.75;71.31;101710.04;107366;1289;21537;-80
2022/12/17 19:27:45;;;;;;;70.20;47.70;;;;;;;-2.76;71.30;101712.73;107361;1290;22004;-81
2022/12/17 19:30:15;;;;;;;65.20;47.60;;;;;;;-2.77;71.19;101711.98;107652;1283;21973;-81
2022/12/17 19:32:46;;;;;;;58.00;45.10;;;;;;;-2.77;71.23;101713.53;107882;1285;22010;-82
2022/12/17 19:35:18;;;;;;;57.80;46.30;;;;;;;-2.75;71.24;101715.11;107913;1289;22722;-82
2022/12/17 19:37:53;;;;;;;59.40;43.40;;;;;;;-2.73;71.18;101718.27;108254;1283;21948;-79
2022/12/17 19:40:27;;;;;;;52.10;43.30;;;;;;;-2.74;71.13;101723.17;107980;1288;22520;-79
2022/12/17 19:42:58;;;;;;;61.00;44.70;;;;;;;-2.75;71.13;101726.39;107952;1284;23633;-80
2022/12/17 19:45:33;;;;;;;67.10;47.20;;;;;;;-2.72;71.17;101726.99;108015;1288;22264;-79
2022/12/17 19:48:16;;;;;;;63.40;45.20;;;;;;;-2.73;71.07;101730.04;108129;1280;23705;-80
2022/12/17 19:50:57;;;;;;;60.90;47.00;;;;;;;-2.76;70.99;101736.23;107957;1283;22306;-79
2022/12/17 19:53:31;;;;;;;62.40;48.80;;;;;;;-2.79;71.13;101736.96;108061;1287;22360;-81
2022/12/17 19:56:13;;;;;;;63.90;45.90;;;;;;;-2.77;71.19;101738.41;108164;1287;23699;-81
2022/12/17 19:58:52;;;;;;;57.50;42.80;;;;;;;-2.78;71.04;101746.38;108170;1282;21942;-81
2022/12/17 20:01:31;;;;;;;58.90;44.40;;;;;;;-2.79;71.13;101752.29;107906;1283;22096;-80
2022/12/17 20:04:10;;;;;;;60.30;47.40;;;;;;;-2.78;71.13;101754.38;107761;1280;22933;-81
2022/12/17 20:06:44;;;;;;;61.60;45.00;;;;;;;-2.81;70.98;101760.89;107795;1288;22824;-82
2022/12/17 20:09:16;;;;;;;62.30;49.60;;;;;;;-2.82;71.09;101759.83;107746;1285;21959;-81
2022/12/17 20:11:48;;;;;;;61.70;46.10;;;;;;;-2.81;71.17;101760.39;107656;1289;22002;-80
2022/12/17 20:14:25;;;;;;;64.90;48.90;;;;;;;-2.82;71.05;101765.12;107886;1283;21967;-79
2022/12/17 20:16:58;;;;;;;63.00;48.80;;;;;;;-2.82;71.07;101759.85;107895;1276;21968;-82
2022/12/17 20:19:41;;;;;;;65.80;47.70;;;;;;;-2.80;71.10;101764.86;108030;1283;22611;-83
2022/12/17 20:22:21;;;;;;;65.00;48.40;;;;;;;-2.78;71.21;101766.63;108411;1276;22001;-82
2022/12/17 20:24:53;;;;;;;64.00;46.80;;;;;;;-2.76;71.19;101775.77;108326;1282;21964;-83
2022/12/17 20:27:23;;;;;;;69.40;49.00;;;;;;;-2.75;71.08;101776.65;108292;1280;22297;-83
2022/12/17 20:29:53;;;;;;;66.10;46.90;;;;;;;-2.74;71.06;101779.41;108085;1286;21968;-82
2022/12/17 20:32:28;;;;;;;61.50;46.30;;;;;;;-2.74;71.02;101781.11;108132;1284;22996;-83
2022/12/17 20:34:57;;;;;;;73.30;48.20;;;;;;;-2.74;71.08;101785.02;107096;1287;1391308;-84
2022/12/17 20:37:29;;;;;;;63.30;46.40;;;;;;;-2.73;71.10;101783.55;108020;1286;21975;-81
2022/12/17 20:40:03;;;;;;;67.50;49.50;;;;;;;-2.74;71.02;101788.96;108171;1277;21942;-82
2022/12/17 20:42:32;;;;;;;62.50;47.30;;;;;;;-2.74;71.03;101794.23;108008;1287;21974;-82
2022/12/17 20:45:03;;;;;;;66.10;48.90;;;;;;;-2.73;71.03;101798.71;108101;1280;23625;-83
2022/12/17 20:47:32;;;;;;;64.80;47.30;;;;;;;-2.69;71.06;101807.41;108024;1274;23066;-82
2022/12/17 20:50:04;;;;;;;61.70;47.40;;;;;;;-2.63;71.08;101810.33;108384;1280;23039;-81
2022/12/17 20:52:34;;;;;;;58.70;44.50;;;;;;;-2.61;71.06;101808.91;108257;1283;23678;-82
2022/12/17 20:55:04;;;;;;;57.20;42.90;;;;;;;-2.60;70.96;101814.21;107944;1283;21970;-83
2022/12/17 20:57:36;;;;;;;57.10;42.20;;;;;;;-2.61;70.87;101811.61;107756;1285;23682;-82
2022/12/17 21:00:38;;;;;;;52.80;38.40;;;;;;;-2.65;70.86;101813.17;108091;1280;22656;-82
2022/12/17 21:03:14;;;;;;;53.30;40.10;;;;;;;-2.69;70.88;101816.74;108124;1284;21965;-81
2022/12/17 21:06:44;;;;;;;60.00;43.90;;;;;;;-2.72;70.87;101818.16;108020;1277;21966;-82
2022/12/17 21:09:18;;;;;;;57.90;42.90;;;;;;;-2.73;70.89;101822.74;107319;1285;21964;-81
2022/12/17 21:11:54;;;;;;;53.80;40.70;;;;;;;-2.72;70.90;101822.10;107217;1290;22907;-83
2022/12/17 21:14:26;;;;;;;55.70;41.50;;;;;;;-2.71;71.11;101826.56;107002;1292;22054;-81
2022/12/17 21:17:06;;;;;;;55.10;41.20;;;;;;;-2.70;71.01;101829.31;107079;1294;22074;-82
2022/12/17 21:19:36;;;;;;;53.00;41.00;;;;;;;-2.70;70.83;101829.14;107136;1291;23658;-81
2022/12/17 21:22:06;;;;;;;62.60;42.60;;;;;;;-2.70;70.98;101827.77;107489;1283;21974;-80
2022/12/17 21:24:41;;;;;;;59.10;41.90;;;;;;;-2.70;70.82;101833.05;107589;1286;23900;-80
2022/12/17 21:27:16;;;;;;;55.10;40.80;;;;;;;-2.72;70.84;101838.95;107622;1291;23100;-81
2022/12/17 21:29:51;;;;;;;53.20;41.90;;;;;;;-2.71;70.87;101838.49;107574;1291;21958;-81
2022/12/17 21:32:26;;;;;;;54.50;41.70;;;;;;;-2.68;71.15;101839.45;107634;1286;21928;-83
2022/12/17 21:35:10;;;;;;;56.20;40.90;;;;;;;-2.70;70.95;101841.79;107606;1289;21972;-83
2022/12/17 21:37:50;;;;;;;55.70;41.60;;;;;;;-2.71;71.06;101841.73;107538;1291;21969;-83
2022/12/17 21:40:20;;;;;;;56.40;43.00;;;;;;;-2.70;71.03;101847.24;107796;1292;23607;-82
2022/12/17 21:43:21;;;;;;;56.00;40.90;;;;;;;-2.67;71.13;101844.13;107243;1292;22224;-81
2022/12/17 21:46:16;;;;;;;59.10;42.70;;;;;;;-2.65;70.99;101842.65;107366;1285;21955;-83
2022/12/17 21:48:57;;;;;;;57.40;42.20;;;;;;;-2.62;70.96;101849.60;107871;1282;23106;-81
2022/12/17 21:51:44;;;;;;;59.10;42.90;;;;;;;-2.62;70.95;101849.93;107830;1288;22010;-82
2022/12/17 21:54:16;;;;;;;60.40;44.00;;;;;;;-2.62;70.99;101850.80;107911;1283;21953;-82
2022/12/17 21:56:48;;;;;;;59.50;43.70;;;;;;;-2.59;71.05;101855.87;107987;1280;22331;-81
2022/12/17 21:59:21;;;;;;;58.60;42.30;;;;;;;-2.56;70.86;101855.63;107887;1283;22734;-83
2022/12/17 22:01:59;;;;;;;54.50;38.80;;;;;;;-2.54;70.88;101861.84;107810;1282;21946;-83
2022/12/17 22:04:44;;;;;;;59.90;44.70;;;;;;;-2.55;70.84;101868.14;108048;1279;21954;-82
2022/12/17 22:07:15;;;;;;;56.30;40.80;;;;;;;-2.54;70.90;101869.70;108040;1286;22137;-82
2022/12/17 22:09:58;;;;;;;60.70;40.40;;;;;;;-2.50;71.04;101876.33;108051;1286;21997;-81
2022/12/17 22:15:55;;;;;;;55.00;38.30;;;;;;;-2.47;70.84;101867.55;108243;1289;22008;-83
2022/12/17 22:18:26;;;;;;;52.40;39.00;;;;;;;-2.49;70.82;101871.41;107880;1289;23788;-81
2022/12/17 22:21:01;;;;;;;52.40;40.30;;;;;;;-2.49;70.70;101874.82;108296;1282;23808;-82
2022/12/17 22:23:43;;;;;;;56.80;40.80;;;;;;;-2.48;70.71;101874.52;108222;1283;21995;-82
2022/12/17 22:26:26;;;;;;;56.70;42.10;;;;;;;-2.43;70.99;101881.04;108150;1283;22911;-80
2022/12/17 22:29:03;;;;;;;57.40;41.30;;;;;;;-2.40;70.82;101883.20;108358;1283;23022;-82
2022/12/17 22:34:52;;;;;;;55.10;39.80;;;;;;;-2.38;70.92;101890.11;108290;1282;21994;-81
2022/12/17 22:37:48;;;;;;;54.10;40.10;;;;;;;-2.42;70.62;101888.59;108254;1283;21997;-81
2022/12/17 22:40:38;;;;;;;52.00;37.70;;;;;;;-2.45;70.70;101892.18;108366;1285;21955;-82
2022/12/17 22:43:36;;;;;;;52.50;37.00;;;;;;;-2.41;70.85;101895.07;108366;1282;23090;-81
2022/12/17 22:46:32;;;;;;;51.10;37.80;;;;;;;-2.35;70.79;101900.44;108345;1283;21970;-81
2022/12/17 22:49:13;;;;;;;58.60;39.20;;;;;;;-2.38;70.44;101904.79;108227;1282;21924;-81
2022/12/17 22:51:47;;;;;;;53.50;40.80;;;;;;;-2.40;70.25;101904.33;108279;1282;21975;-80
2022/12/17 22:55:03;;;;;;;53.40;38.70;;;;;;;-2.44;70.28;101898.23;108206;1282;21929;-81
2022/12/17 22:57:43;;;;;;;53.00;38.60;;;;;;;-2.49;70.20;101904.14;107905;1286;21949;-78
2022/12/17 23:00:30;;;;;;;59.00;41.10;;;;;;;-2.52;70.24;101905.73;107886;1286;23595;-81
2022/12/17 23:03:01;;;;;;;55.80;40.90;;;;;;;-2.52;70.27;101909.64;107641;1292;21974;-81
2022/12/17 23:05:34;;;;;;;52.80;40.00;;;;;;;-2.51;70.13;101911.05;107833;1291;21991;-81
2022/12/17 23:08:10;;;;;;;55.30;39.00;;;;;;;-2.51;70.13;101912.75;107564;1292;21952;-80
2022/12/17 23:10:59;;;;;;;51.90;39.40;;;;;;;-2.52;70.09;101917.16;107754;1291;21957;-82
2022/12/17 23:13:39;;;;;;;57.20;42.80;;;;;;;-2.56;70.02;101921.76;107598;1284;21986;-80
2022/12/17 23:16:22;;;;;;;60.30;42.50;;;;;;;-2.59;70.03;101926.42;107655;1291;22226;-81
2022/12/17 23:19:01;;;;;;;57.70;41.90;;;;;;;-2.62;69.95;101932.09;107690;1287;21965;-80
2022/12/17 23:21:34;;;;;;;54.50;41.10;;;;;;;-2.65;70.00;101942.53;107852;1286;23605;-82
2022/12/17 23:24:08;;;;;;;58.30;42.30;;;;;;;-2.66;69.99;101946.93;108308;1285;21989;-81
2022/12/17 23:26:38;;;;;;;59.60;41.60;;;;;;;-2.67;70.04;101945.34;108309;1285;21960;-81
2022/12/17 23:29:16;;;;;;;55.20;40.40;;;;;;;-2.70;69.95;101948.11;108121;1285;21956;-82
2022/12/17 23:32:02;;;;;;;51.00;39.70;;;;;;;-2.76;69.91;101949.91;108508;1270;22006;-82
2022/12/17 23:34:32;;;;;;;52.20;40.10;;;;;;;-2.82;69.97;101951.00;108242;1283;23029;-82
2022/12/17 23:37:07;;;;;;;54.30;40.00;;;;;;;-2.86;70.04;101953.73;108486;1285;21973;-82
2022/12/17 23:39:40;;;;;;;53.40;40.00;;;;;;;-2.88;70.09;101956.20;108168;1286;23592;-82
2022/12/17 23:42:12;;;;;;;52.00;39.70;;;;;;;-2.92;70.09;101958.26;108249;1286;21949;-82
2022/12/17 23:44:42;;;;;;;51.50;38.30;;;;;;;-2.95;70.09;101963.75;107885;1289;21980;-82
2022/12/17 23:47:13;;;;;;;52.50;39.80;;;;;;;-2.98;70.10;101966.54;107908;1283;22417;-81
2022/12/17 23:49:49;;;;;;;50.60;37.70;;;;;;;-2.98;70.13;101971.48;107709;1292;21943;-82
2022/12/17 23:52:26;;;;;;;52.20;38.00;;;;;;;-2.97;70.19;101975.95;107319;1292;23699;-84
2022/12/17 23:54:59;;;;;;;49.30;37.70;;;;;;;-3.00;70.21;101975.49;107515;1291;23080;-82
2022/12/17 23:57:34;;;;;;;48.60;36.60;;;;;;;-3.03;70.11;101978.70;107746;1292;23635;-83
